sensor_id;sensor_type;location;lat;lon;timestamp;temperature;humidity
23499;DHT22;11926;48.120;11.562;2023-04-01T00:02:20;8.90;89.20
23499;DHT22;11926;48.120;11.562;2023-04-01T00:05:08;8.90;89.50
23499;DHT22;11926;48.120;11.562;2023-04-01T00:07:57;8.90;89.60
23499;DHT22;11926;48.120;11.562;2023-04-01T00:10:45;8.80;89.80
23499;DHT22;11926;48.120;11.562;2023-04-01T00:13:33;8.80;90.00
23499;DHT22;11926;48.120;11.562;2023-04-01T00:16:23;8.80;90.00
23499;DHT22;11926;48.120;11.562;2023-04-01T00:19:11;8.80;90.10
23499;DHT22;11926;48.120;11.562;2023-04-01T00:21:58;8.70;90.10
23499;DHT22;11926;48.120;11.562;2023-04-01T00:24:46;8.70;90.10
23499;DHT22;11926;48.120;11.562;2023-04-01T00:27:34;8.70;90.10
23499;DHT22;11926;48.120;11.562;2023-04-01T00:30:22;8.70;90.20
23499;DHT22;11926;48.120;11.562;2023-04-01T00:33:11;8.70;90.20
23499;DHT22;11926;48.120;11.562;2023-04-01T00:36:07;8.60;90.20
23499;DHT22;11926;48.120;11.562;2023-04-01T00:38:55;8.60;90.20
23499;DHT22;11926;48.120;11.562;2023-04-01T00:41:42;8.50;90.20
23499;DHT22;11926;48.120;11.562;2023-04-01T00:44:32;8.50;90.30
23499;DHT22;11926;48.120;11.562;2023-04-01T00:47:21;8.50;90.40
23499;DHT22;11926;48.120;11.562;2023-04-01T00:50:10;8.50;90.40
23499;DHT22;11926;48.120;11.562;2023-04-01T00:53:00;8.50;90.40
23499;DHT22;11926;48.120;11.562;2023-04-01T00:55:54;8.50;90.50
23499;DHT22;11926;48.120;11.562;2023-04-01T00:58:47;8.50;90.60
23499;DHT22;11926;48.120;11.562;2023-04-01T01:01:36;8.50;90.60
23499;DHT22;11926;48.120;11.562;2023-04-01T01:04:25;8.50;90.60
23499;DHT22;11926;48.120;11.562;2023-04-01T01:07:22;8.50;90.60
23499;DHT22;11926;48.120;11.562;2023-04-01T01:10:16;8.60;90.60
23499;DHT22;11926;48.120;11.562;2023-04-01T01:13:10;8.60;90.60
23499;DHT22;11926;48.120;11.562;2023-04-01T01:16:00;8.60;90.90
23499;DHT22;11926;48.120;11.562;2023-04-01T01:18:55;8.60;90.50
23499;DHT22;11926;48.120;11.562;2023-04-01T01:21:56;8.70;90.50
23499;DHT22;11926;48.120;11.562;2023-04-01T01:25:04;8.60;90.50
23499;DHT22;11926;48.120;11.562;2023-04-01T01:28:08;8.70;90.50
23499;DHT22;11926;48.120;11.562;2023-04-01T01:31:09;8.70;90.50
23499;DHT22;11926;48.120;11.562;2023-04-01T01:34:09;8.70;90.40
23499;DHT22;11926;48.120;11.562;2023-04-01T01:37:05;8.80;90.40
23499;DHT22;11926;48.120;11.562;2023-04-01T01:39:58;8.80;90.30
23499;DHT22;11926;48.120;11.562;2023-04-01T01:42:51;8.80;90.20
23499;DHT22;11926;48.120;11.562;2023-04-01T01:45:44;8.70;90.30
23499;DHT22;11926;48.120;11.562;2023-04-01T01:48:37;8.70;90.30
23499;DHT22;11926;48.120;11.562;2023-04-01T01:51:28;8.60;90.40
23499;DHT22;11926;48.120;11.562;2023-04-01T01:54:19;8.60;90.40
23499;DHT22;11926;48.120;11.562;2023-04-01T01:57:10;8.60;90.80
23499;DHT22;11926;48.120;11.562;2023-04-01T02:00:07;8.60;90.40
23499;DHT22;11926;48.120;11.562;2023-04-01T02:03:02;8.60;90.40
23499;DHT22;11926;48.120;11.562;2023-04-01T02:05:55;8.60;90.40
23499;DHT22;11926;48.120;11.562;2023-04-01T02:08:47;8.70;90.30
23499;DHT22;11926;48.120;11.562;2023-04-01T02:11:42;8.70;90.30
23499;DHT22;11926;48.120;11.562;2023-04-01T02:14:39;8.60;90.20
23499;DHT22;11926;48.120;11.562;2023-04-01T02:17:30;8.70;90.20
23499;DHT22;11926;48.120;11.562;2023-04-01T02:20:22;8.70;90.20
23499;DHT22;11926;48.120;11.562;2023-04-01T02:23:11;8.70;90.20
23499;DHT22;11926;48.120;11.562;2023-04-01T02:26:00;8.70;90.20
23499;DHT22;11926;48.120;11.562;2023-04-01T02:28:51;8.60;90.10
23499;DHT22;11926;48.120;11.562;2023-04-01T02:31:40;8.60;90.10
23499;DHT22;11926;48.120;11.562;2023-04-01T02:34:29;8.60;90.10
23499;DHT22;11926;48.120;11.562;2023-04-01T02:37:18;8.60;90.10
23499;DHT22;11926;48.120;11.562;2023-04-01T02:40:07;8.60;90.10
23499;DHT22;11926;48.120;11.562;2023-04-01T02:42:56;8.60;90.00
23499;DHT22;11926;48.120;11.562;2023-04-01T02:45:45;8.60;90.00
23499;DHT22;11926;48.120;11.562;2023-04-01T02:48:33;8.60;90.00
23499;DHT22;11926;48.120;11.562;2023-04-01T02:51:21;8.60;90.00
23499;DHT22;11926;48.120;11.562;2023-04-01T02:54:09;8.60;89.90
23499;DHT22;11926;48.120;11.562;2023-04-01T02:56:57;8.60;90.00
23499;DHT22;11926;48.120;11.562;2023-04-01T02:59:45;8.60;89.90
23499;DHT22;11926;48.120;11.562;2023-04-01T03:02:34;8.60;89.90
23499;DHT22;11926;48.120;11.562;2023-04-01T03:05:23;8.60;89.70
23499;DHT22;11926;48.120;11.562;2023-04-01T03:08:11;8.60;89.70
23499;DHT22;11926;48.120;11.562;2023-04-01T03:10:59;8.60;89.60
23499;DHT22;11926;48.120;11.562;2023-04-01T03:13:48;8.60;89.60
23499;DHT22;11926;48.120;11.562;2023-04-01T03:16:37;8.60;89.70
23499;DHT22;11926;48.120;11.562;2023-04-01T03:19:26;8.60;89.90
23499;DHT22;11926;48.120;11.562;2023-04-01T03:22:15;8.60;89.80
23499;DHT22;11926;48.120;11.562;2023-04-01T03:25:06;8.50;89.60
23499;DHT22;11926;48.120;11.562;2023-04-01T03:27:55;8.60;89.60
23499;DHT22;11926;48.120;11.562;2023-04-01T03:30:45;8.60;90.20
23499;DHT22;11926;48.120;11.562;2023-04-01T03:33:33;8.50;89.50
23499;DHT22;11926;48.120;11.562;2023-04-01T03:36:22;8.40;89.60
23499;DHT22;11926;48.120;11.562;2023-04-01T03:39:12;8.40;89.70
23499;DHT22;11926;48.120;11.562;2023-04-01T03:42:00;8.30;89.80
23499;DHT22;11926;48.120;11.562;2023-04-01T03:44:48;8.20;90.00
23499;DHT22;11926;48.120;11.562;2023-04-01T03:47:36;8.20;90.00
23499;DHT22;11926;48.120;11.562;2023-04-01T03:50:23;8.20;90.10
23499;DHT22;11926;48.120;11.562;2023-04-01T03:53:13;8.20;90.20
23499;DHT22;11926;48.120;11.562;2023-04-01T03:56:04;8.20;90.20
23499;DHT22;11926;48.120;11.562;2023-04-01T03:58:54;8.20;90.20
23499;DHT22;11926;48.120;11.562;2023-04-01T04:01:42;8.20;90.30
23499;DHT22;11926;48.120;11.562;2023-04-01T04:04:30;8.20;90.30
23499;DHT22;11926;48.120;11.562;2023-04-01T04:07:18;8.10;90.30
23499;DHT22;11926;48.120;11.562;2023-04-01T04:10:25;8.10;90.40
23499;DHT22;11926;48.120;11.562;2023-04-01T04:13:13;8.00;90.40
23499;DHT22;11926;48.120;11.562;2023-04-01T04:16:09;8.00;90.50
23499;DHT22;11926;48.120;11.562;2023-04-01T04:19:01;8.00;90.60
23499;DHT22;11926;48.120;11.562;2023-04-01T04:21:49;8.00;90.70
23499;DHT22;11926;48.120;11.562;2023-04-01T04:24:37;8.00;90.80
23499;DHT22;11926;48.120;11.562;2023-04-01T04:27:30;8.10;90.90
23499;DHT22;11926;48.120;11.562;2023-04-01T04:30:26;8.10;90.90
23499;DHT22;11926;48.120;11.562;2023-04-01T04:33:14;8.20;90.80
23499;DHT22;11926;48.120;11.562;2023-04-01T04:36:02;8.20;90.80
23499;DHT22;11926;48.120;11.562;2023-04-01T04:38:51;8.20;90.80
23499;DHT22;11926;48.120;11.562;2023-04-01T04:41:40;8.20;90.80
23499;DHT22;11926;48.120;11.562;2023-04-01T04:44:29;8.20;90.80
23499;DHT22;11926;48.120;11.562;2023-04-01T04:47:19;8.20;90.80
23499;DHT22;11926;48.120;11.562;2023-04-01T04:50:08;8.20;90.90
23499;DHT22;11926;48.120;11.562;2023-04-01T04:52:58;8.20;90.90
23499;DHT22;11926;48.120;11.562;2023-04-01T04:55:47;8.20;90.90
23499;DHT22;11926;48.120;11.562;2023-04-01T04:58:45;8.30;90.80
23499;DHT22;11926;48.120;11.562;2023-04-01T05:01:38;8.30;90.80
23499;DHT22;11926;48.120;11.562;2023-04-01T05:04:26;8.30;90.80
23499;DHT22;11926;48.120;11.562;2023-04-01T05:07:15;8.40;90.80
23499;DHT22;11926;48.120;11.562;2023-04-01T05:10:02;8.40;90.70
23499;DHT22;11926;48.120;11.562;2023-04-01T05:12:51;8.50;90.60
23499;DHT22;11926;48.120;11.562;2023-04-01T05:15:40;8.50;90.50
23499;DHT22;11926;48.120;11.562;2023-04-01T05:18:30;8.50;90.40
23499;DHT22;11926;48.120;11.562;2023-04-01T05:21:17;8.60;90.30
23499;DHT22;11926;48.120;11.562;2023-04-01T05:24:08;8.60;90.20
23499;DHT22;11926;48.120;11.562;2023-04-01T05:26:58;8.60;90.00
23499;DHT22;11926;48.120;11.562;2023-04-01T05:29:47;8.70;90.00
23499;DHT22;11926;48.120;11.562;2023-04-01T05:32:55;8.70;90.00
23499;DHT22;11926;48.120;11.562;2023-04-01T05:35:44;8.70;89.60
23499;DHT22;11926;48.120;11.562;2023-04-01T05:38:32;8.80;89.20
23499;DHT22;11926;48.120;11.562;2023-04-01T05:41:19;8.70;88.90
23499;DHT22;11926;48.120;11.562;2023-04-01T05:44:11;8.80;88.90
23499;DHT22;11926;48.120;11.562;2023-04-01T05:46:59;8.80;88.70
23499;DHT22;11926;48.120;11.562;2023-04-01T05:49:47;8.80;88.60
23499;DHT22;11926;48.120;11.562;2023-04-01T05:52:36;8.80;88.40
23499;DHT22;11926;48.120;11.562;2023-04-01T05:55:25;8.90;88.30
23499;DHT22;11926;48.120;11.562;2023-04-01T05:58:12;8.80;88.20
23499;DHT22;11926;48.120;11.562;2023-04-01T06:01:05;8.90;87.90
23499;DHT22;11926;48.120;11.562;2023-04-01T06:04:02;8.90;87.60
23499;DHT22;11926;48.120;11.562;2023-04-01T06:06:50;8.90;87.50
23499;DHT22;11926;48.120;11.562;2023-04-01T06:09:40;9.00;87.40
23499;DHT22;11926;48.120;11.562;2023-04-01T06:12:39;9.00;87.30
23499;DHT22;11926;48.120;11.562;2023-04-01T06:15:36;9.10;87.00
23499;DHT22;11926;48.120;11.562;2023-04-01T06:18:43;9.10;86.90
23499;DHT22;11926;48.120;11.562;2023-04-01T06:21:56;9.10;86.40
23499;DHT22;11926;48.120;11.562;2023-04-01T06:25:04;9.10;86.40
23499;DHT22;11926;48.120;11.562;2023-04-01T06:28:14;9.10;86.20
23499;DHT22;11926;48.120;11.562;2023-04-01T06:31:15;9.10;85.90
23499;DHT22;11926;48.120;11.562;2023-04-01T06:34:23;9.20;85.70
23499;DHT22;11926;48.120;11.562;2023-04-01T06:37:22;9.20;85.50
23499;DHT22;11926;48.120;11.562;2023-04-01T06:46:47;9.30;84.70
23499;DHT22;11926;48.120;11.562;2023-04-01T06:50:03;9.40;84.60
23499;DHT22;11926;48.120;11.562;2023-04-01T06:53:19;9.50;84.40
23499;DHT22;11926;48.120;11.562;2023-04-01T06:56:30;9.60;83.70
23499;DHT22;11926;48.120;11.562;2023-04-01T06:59:22;9.60;83.80
23499;DHT22;11926;48.120;11.562;2023-04-01T07:02:23;9.80;83.90
23499;DHT22;11926;48.120;11.562;2023-04-01T07:05:15;10.10;83.10
23499;DHT22;11926;48.120;11.562;2023-04-01T07:08:06;10.20;82.40
23499;DHT22;11926;48.120;11.562;2023-04-01T07:11:00;10.40;82.00
23499;DHT22;11926;48.120;11.562;2023-04-01T07:14:16;10.60;81.10
23499;DHT22;11926;48.120;11.562;2023-04-01T07:17:11;10.70;80.80
23499;DHT22;11926;48.120;11.562;2023-04-01T07:20:05;10.80;80.30
23499;DHT22;11926;48.120;11.562;2023-04-01T07:22:59;10.80;79.60
23499;DHT22;11926;48.120;11.562;2023-04-01T07:25:56;10.80;79.20
23499;DHT22;11926;48.120;11.562;2023-04-01T07:28:49;10.80;78.60
23499;DHT22;11926;48.120;11.562;2023-04-01T07:32:05;10.80;78.70
23499;DHT22;11926;48.120;11.562;2023-04-01T07:35:04;10.90;78.80
23499;DHT22;11926;48.120;11.562;2023-04-01T07:38:07;11.10;77.70
23499;DHT22;11926;48.120;11.562;2023-04-01T07:41:03;11.20;77.80
23499;DHT22;11926;48.120;11.562;2023-04-01T07:44:03;11.40;77.40
23499;DHT22;11926;48.120;11.562;2023-04-01T07:47:06;11.50;76.90
23499;DHT22;11926;48.120;11.562;2023-04-01T07:50:10;11.60;76.70
23499;DHT22;11926;48.120;11.562;2023-04-01T07:53:06;11.90;76.60
23499;DHT22;11926;48.120;11.562;2023-04-01T07:56:04;12.10;75.90
23499;DHT22;11926;48.120;11.562;2023-04-01T07:59:07;12.30;75.10
23499;DHT22;11926;48.120;11.562;2023-04-01T08:02:15;12.40;74.40
23499;DHT22;11926;48.120;11.562;2023-04-01T08:05:17;12.40;74.40
23499;DHT22;11926;48.120;11.562;2023-04-01T08:08:10;12.40;73.70
23499;DHT22;11926;48.120;11.562;2023-04-01T08:11:30;12.30;73.30
23499;DHT22;11926;48.120;11.562;2023-04-01T08:14:52;12.30;73.70
23499;DHT22;11926;48.120;11.562;2023-04-01T08:18:16;12.50;73.30
23499;DHT22;11926;48.120;11.562;2023-04-01T08:21:11;12.60;72.30
23499;DHT22;11926;48.120;11.562;2023-04-01T08:24:06;12.60;72.00
23499;DHT22;11926;48.120;11.562;2023-04-01T08:27:01;12.70;72.50
23499;DHT22;11926;48.120;11.562;2023-04-01T08:29:53;12.90;71.10
23499;DHT22;11926;48.120;11.562;2023-04-01T08:32:48;12.90;70.60
23499;DHT22;11926;48.120;11.562;2023-04-01T08:35:45;12.90;70.50
23499;DHT22;11926;48.120;11.562;2023-04-01T08:38:39;13.20;70.10
23499;DHT22;11926;48.120;11.562;2023-04-01T08:41:39;13.30;69.00
23499;DHT22;11926;48.120;11.562;2023-04-01T08:45:15;13.40;69.00
23499;DHT22;11926;48.120;11.562;2023-04-01T08:48:20;13.50;68.60
23499;DHT22;11926;48.120;11.562;2023-04-01T08:51:26;13.70;68.70
23499;DHT22;11926;48.120;11.562;2023-04-01T08:54:29;13.80;69.00
23499;DHT22;11926;48.120;11.562;2023-04-01T08:57:29;14.00;67.20
23499;DHT22;11926;48.120;11.562;2023-04-01T09:00:47;14.10;66.10
23499;DHT22;11926;48.120;11.562;2023-04-01T09:10:20;15.20;64.70
23499;DHT22;11926;48.120;11.562;2023-04-01T09:13:15;15.40;62.20
23499;DHT22;11926;48.120;11.562;2023-04-01T09:16:18;15.40;63.20
23499;DHT22;11926;48.120;11.562;2023-04-01T09:19:27;15.90;62.00
23499;DHT22;11926;48.120;11.562;2023-04-01T09:22:28;16.30;62.00
23499;DHT22;11926;48.120;11.562;2023-04-01T09:25:30;16.60;58.80
23499;DHT22;11926;48.120;11.562;2023-04-01T09:28:28;16.10;58.30
23499;DHT22;11926;48.120;11.562;2023-04-01T09:31:32;15.70;59.20
23499;DHT22;11926;48.120;11.562;2023-04-01T09:34:53;15.50;60.40
23499;DHT22;11926;48.120;11.562;2023-04-01T09:38:02;15.40;61.50
23499;DHT22;11926;48.120;11.562;2023-04-01T09:40:57;15.60;61.40
23499;DHT22;11926;48.120;11.562;2023-04-01T09:44:01;15.60;60.10
23499;DHT22;11926;48.120;11.562;2023-04-01T09:47:06;15.80;60.30
23499;DHT22;11926;48.120;11.562;2023-04-01T09:50:14;15.90;59.10
23499;DHT22;11926;48.120;11.562;2023-04-01T09:53:19;16.00;58.90
23499;DHT22;11926;48.120;11.562;2023-04-01T10:12:11;15.50;58.00
23499;DHT22;11926;48.120;11.562;2023-04-01T10:21:25;14.80;58.80
23499;DHT22;11926;48.120;11.562;2023-04-01T10:27:48;14.80;59.40
23499;DHT22;11926;48.120;11.562;2023-04-01T10:30:52;14.80;59.60
23499;DHT22;11926;48.120;11.562;2023-04-01T10:34:04;15.00;60.00
23499;DHT22;11926;48.120;11.562;2023-04-01T10:36:57;15.10;59.50
23499;DHT22;11926;48.120;11.562;2023-04-01T10:40:13;15.10;59.20
23499;DHT22;11926;48.120;11.562;2023-04-01T10:50:06;15.00;59.90
23499;DHT22;11926;48.120;11.562;2023-04-01T10:53:38;15.00;60.40
23499;DHT22;11926;48.120;11.562;2023-04-01T10:56:55;14.90;60.50
23499;DHT22;11926;48.120;11.562;2023-04-01T11:00:18;14.80;60.80
23499;DHT22;11926;48.120;11.562;2023-04-01T11:13:40;14.30;66.50
23499;DHT22;11926;48.120;11.562;2023-04-01T11:16:56;14.20;67.20
23499;DHT22;11926;48.120;11.562;2023-04-01T11:22:56;14.00;69.10
23499;DHT22;11926;48.120;11.562;2023-04-01T11:29:34;14.20;69.90
23499;DHT22;11926;48.120;11.562;2023-04-01T11:32:46;14.30;70.20
23499;DHT22;11926;48.120;11.562;2023-04-01T11:35:47;14.40;69.80
23499;DHT22;11926;48.120;11.562;2023-04-01T11:38:58;14.40;70.00
23499;DHT22;11926;48.120;11.562;2023-04-01T11:42:20;14.40;70.00
23499;DHT22;11926;48.120;11.562;2023-04-01T11:45:36;14.40;69.30
23499;DHT22;11926;48.120;11.562;2023-04-01T11:48:41;14.30;68.10
23499;DHT22;11926;48.120;11.562;2023-04-01T11:54:57;13.60;71.10
23499;DHT22;11926;48.120;11.562;2023-04-01T12:00:53;13.20;74.10
23499;DHT22;11926;48.120;11.562;2023-04-01T12:04:05;13.00;75.20
23499;DHT22;11926;48.120;11.562;2023-04-01T12:07:01;12.80;76.30
23499;DHT22;11926;48.120;11.562;2023-04-01T12:09:57;12.50;75.80
23499;DHT22;11926;48.120;11.562;2023-04-01T12:12:58;12.40;78.00
23499;DHT22;11926;48.120;11.562;2023-04-01T12:16:02;12.30;78.50
23499;DHT22;11926;48.120;11.562;2023-04-01T12:18:55;12.20;79.50
23499;DHT22;11926;48.120;11.562;2023-04-01T12:21:53;12.10;80.00
23499;DHT22;11926;48.120;11.562;2023-04-01T13:08:58;10.90;83.00
23499;DHT22;11926;48.120;11.562;2023-04-01T13:12:04;11.00;84.50
23499;DHT22;11926;48.120;11.562;2023-04-01T13:15:10;11.00;85.30
23499;DHT22;11926;48.120;11.562;2023-04-01T13:18:11;10.90;84.50
23499;DHT22;11926;48.120;11.562;2023-04-01T13:21:06;10.90;85.10
23499;DHT22;11926;48.120;11.562;2023-04-01T13:24:01;10.80;85.10
23499;DHT22;11926;48.120;11.562;2023-04-01T13:26:52;10.80;85.30
23499;DHT22;11926;48.120;11.562;2023-04-01T13:29:47;10.70;85.00
23499;DHT22;11926;48.120;11.562;2023-04-01T13:32:46;10.70;85.70
23499;DHT22;11926;48.120;11.562;2023-04-01T13:35:41;10.70;85.80
23499;DHT22;11926;48.120;11.562;2023-04-01T13:38:52;10.80;86.20
23499;DHT22;11926;48.120;11.562;2023-04-01T13:42:06;10.80;86.50
23499;DHT22;11926;48.120;11.562;2023-04-01T13:45:02;10.80;87.00
23499;DHT22;11926;48.120;11.562;2023-04-01T13:48:15;10.90;87.20
23499;DHT22;11926;48.120;11.562;2023-04-01T13:51:17;10.80;87.40
23499;DHT22;11926;48.120;11.562;2023-04-01T13:54:23;10.90;87.60
23499;DHT22;11926;48.120;11.562;2023-04-01T13:57:24;11.00;87.60
23499;DHT22;11926;48.120;11.562;2023-04-01T14:00:23;11.00;87.40
23499;DHT22;11926;48.120;11.562;2023-04-01T14:03:27;11.00;87.60
23499;DHT22;11926;48.120;11.562;2023-04-01T14:06:24;11.00;87.20
23499;DHT22;11926;48.120;11.562;2023-04-01T14:09:30;11.10;87.60
23499;DHT22;11926;48.120;11.562;2023-04-01T14:12:29;11.20;87.80
23499;DHT22;11926;48.120;11.562;2023-04-01T14:15:34;11.20;88.10
23499;DHT22;11926;48.120;11.562;2023-04-01T14:18:44;11.20;87.80
23499;DHT22;11926;48.120;11.562;2023-04-01T14:21:37;11.20;87.60
23499;DHT22;11926;48.120;11.562;2023-04-01T14:24:42;11.20;87.50
23499;DHT22;11926;48.120;11.562;2023-04-01T14:27:41;11.20;87.70
23499;DHT22;11926;48.120;11.562;2023-04-01T14:30:48;11.20;87.60
23499;DHT22;11926;48.120;11.562;2023-04-01T14:33:46;11.10;87.10
23499;DHT22;11926;48.120;11.562;2023-04-01T14:36:48;11.10;87.20
23499;DHT22;11926;48.120;11.562;2023-04-01T14:39:54;11.20;87.60
23499;DHT22;11926;48.120;11.562;2023-04-01T14:43:06;11.20;87.50
23499;DHT22;11926;48.120;11.562;2023-04-01T14:46:23;11.20;88.00
23499;DHT22;11926;48.120;11.562;2023-04-01T14:49:21;11.30;88.10
23499;DHT22;11926;48.120;11.562;2023-04-01T14:52:14;11.30;88.20
23499;DHT22;11926;48.120;11.562;2023-04-01T14:55:21;11.40;88.50
23499;DHT22;11926;48.120;11.562;2023-04-01T14:58:14;11.30;87.70
23499;DHT22;11926;48.120;11.562;2023-04-01T15:01:17;11.30;88.20
23499;DHT22;11926;48.120;11.562;2023-04-01T15:04:25;11.40;88.80
23499;DHT22;11926;48.120;11.562;2023-04-01T15:07:36;11.40;88.60
23499;DHT22;11926;48.120;11.562;2023-04-01T15:10:53;11.30;88.50
23499;DHT22;11926;48.120;11.562;2023-04-01T15:13:57;11.30;87.80
23499;DHT22;11926;48.120;11.562;2023-04-01T15:16:59;11.20;87.80
23499;DHT22;11926;48.120;11.562;2023-04-01T15:23:20;11.00;88.10
23499;DHT22;11926;48.120;11.562;2023-04-01T15:26:27;11.00;88.10
23499;DHT22;11926;48.120;11.562;2023-04-01T15:29:35;11.10;87.90
23499;DHT22;11926;48.120;11.562;2023-04-01T15:32:32;11.10;87.50
23499;DHT22;11926;48.120;11.562;2023-04-01T15:35:38;11.10;87.10
23499;DHT22;11926;48.120;11.562;2023-04-01T15:38:33;11.20;87.30
23499;DHT22;11926;48.120;11.562;2023-04-01T15:41:27;11.20;86.30
23499;DHT22;11926;48.120;11.562;2023-04-01T15:44:37;11.20;86.20
23499;DHT22;11926;48.120;11.562;2023-04-01T15:50:37;11.20;86.20
23499;DHT22;11926;48.120;11.562;2023-04-01T15:53:40;11.30;85.90
23499;DHT22;11926;48.120;11.562;2023-04-01T15:56:48;11.30;85.40
23499;DHT22;11926;48.120;11.562;2023-04-01T16:00:01;11.30;84.70
23499;DHT22;11926;48.120;11.562;2023-04-01T16:03:18;11.30;85.00
23499;DHT22;11926;48.120;11.562;2023-04-01T16:09:34;11.30;83.10
23499;DHT22;11926;48.120;11.562;2023-04-01T16:12:35;11.30;82.40
23499;DHT22;11926;48.120;11.562;2023-04-01T16:15:27;11.30;82.00
23499;DHT22;11926;48.120;11.562;2023-04-01T16:18:34;11.30;81.90
23499;DHT22;11926;48.120;11.562;2023-04-01T16:21:37;11.30;82.10
23499;DHT22;11926;48.120;11.562;2023-04-01T16:24:33;11.20;81.60
23499;DHT22;11926;48.120;11.562;2023-04-01T16:27:27;11.20;81.20
23499;DHT22;11926;48.120;11.562;2023-04-01T16:30:32;11.20;81.20
23499;DHT22;11926;48.120;11.562;2023-04-01T16:33:24;11.20;80.90
23499;DHT22;11926;48.120;11.562;2023-04-01T16:36:24;11.20;81.00
23499;DHT22;11926;48.120;11.562;2023-04-01T16:39:27;11.10;80.60
23499;DHT22;11926;48.120;11.562;2023-04-01T16:42:26;11.10;80.80
23499;DHT22;11926;48.120;11.562;2023-04-01T16:45:23;11.00;80.90
23499;DHT22;11926;48.120;11.562;2023-04-01T16:48:13;11.00;80.90
23499;DHT22;11926;48.120;11.562;2023-04-01T16:51:04;11.00;80.80
23499;DHT22;11926;48.120;11.562;2023-04-01T16:54:04;10.90;80.70
23499;DHT22;11926;48.120;11.562;2023-04-01T16:57:02;10.90;80.80
23499;DHT22;11926;48.120;11.562;2023-04-01T16:59:57;10.90;80.90
23499;DHT22;11926;48.120;11.562;2023-04-01T17:02:54;10.90;80.90
23499;DHT22;11926;48.120;11.562;2023-04-01T17:05:54;10.90;80.50
23499;DHT22;11926;48.120;11.562;2023-04-01T17:08:57;10.80;80.10
23499;DHT22;11926;48.120;11.562;2023-04-01T17:11:56;10.80;80.10
23499;DHT22;11926;48.120;11.562;2023-04-01T17:14:51;10.70;80.10
23499;DHT22;11926;48.120;11.562;2023-04-01T17:17:48;10.70;80.10
23499;DHT22;11926;48.120;11.562;2023-04-01T17:20:42;10.70;80.10
23499;DHT22;11926;48.120;11.562;2023-04-01T17:23:35;10.60;80.00
23499;DHT22;11926;48.120;11.562;2023-04-01T17:26:32;10.60;80.20
23499;DHT22;11926;48.120;11.562;2023-04-01T17:29:29;10.60;80.20
23499;DHT22;11926;48.120;11.562;2023-04-01T17:32:26;10.60;80.10
23499;DHT22;11926;48.120;11.562;2023-04-01T17:35:21;10.60;80.20
23499;DHT22;11926;48.120;11.562;2023-04-01T17:38:20;10.60;79.80
23499;DHT22;11926;48.120;11.562;2023-04-01T17:41:19;10.50;79.70
23499;DHT22;11926;48.120;11.562;2023-04-01T17:44:21;10.50;79.90
23499;DHT22;11926;48.120;11.562;2023-04-01T17:47:28;10.50;80.00
23499;DHT22;11926;48.120;11.562;2023-04-01T17:50:23;10.50;80.10
23499;DHT22;11926;48.120;11.562;2023-04-01T17:53:21;10.40;79.80
23499;DHT22;11926;48.120;11.562;2023-04-01T17:56:18;10.40;80.00
23499;DHT22;11926;48.120;11.562;2023-04-01T17:59:13;10.40;80.20
23499;DHT22;11926;48.120;11.562;2023-04-01T18:02:16;10.40;80.10
23499;DHT22;11926;48.120;11.562;2023-04-01T18:05:24;10.40;80.20
23499;DHT22;11926;48.120;11.562;2023-04-01T18:08:26;10.40;80.10
23499;DHT22;11926;48.120;11.562;2023-04-01T18:11:31;10.30;79.90
23499;DHT22;11926;48.120;11.562;2023-04-01T18:14:42;10.30;80.30
23499;DHT22;11926;48.120;11.562;2023-04-01T18:17:46;10.40;80.20
23499;DHT22;11926;48.120;11.562;2023-04-01T18:20:51;10.40;80.10
23499;DHT22;11926;48.120;11.562;2023-04-01T18:23:46;10.30;80.30
23499;DHT22;11926;48.120;11.562;2023-04-01T18:26:53;10.30;80.20
23499;DHT22;11926;48.120;11.562;2023-04-01T18:29:52;10.30;80.40
23499;DHT22;11926;48.120;11.562;2023-04-01T18:32:46;10.30;80.70
23499;DHT22;11926;48.120;11.562;2023-04-01T18:35:49;10.30;81.20
23499;DHT22;11926;48.120;11.562;2023-04-01T18:38:46;10.30;81.50
23499;DHT22;11926;48.120;11.562;2023-04-01T18:41:41;10.20;81.90
23499;DHT22;11926;48.120;11.562;2023-04-01T18:44:41;10.20;82.40
23499;DHT22;11926;48.120;11.562;2023-04-01T18:47:38;10.20;82.80
23499;DHT22;11926;48.120;11.562;2023-04-01T18:50:36;10.10;83.10
23499;DHT22;11926;48.120;11.562;2023-04-01T18:53:30;10.10;83.70
23499;DHT22;11926;48.120;11.562;2023-04-01T18:56:27;10.10;84.70
23499;DHT22;11926;48.120;11.562;2023-04-01T18:59:21;10.00;83.90
23499;DHT22;11926;48.120;11.562;2023-04-01T19:02:24;10.00;84.30
23499;DHT22;11926;48.120;11.562;2023-04-01T19:05:17;10.00;84.40
23499;DHT22;11926;48.120;11.562;2023-04-01T19:08:27;10.00;84.60
23499;DHT22;11926;48.120;11.562;2023-04-01T19:14:13;9.90;84.70
23499;DHT22;11926;48.120;11.562;2023-04-01T19:17:14;9.90;84.90
23499;DHT22;11926;48.120;11.562;2023-04-01T19:20:14;9.90;85.00
23499;DHT22;11926;48.120;11.562;2023-04-01T19:23:25;9.90;85.20
23499;DHT22;11926;48.120;11.562;2023-04-01T19:26:20;9.80;85.20
23499;DHT22;11926;48.120;11.562;2023-04-01T19:29:21;9.80;85.40
23499;DHT22;11926;48.120;11.562;2023-04-01T19:32:21;9.80;85.40
23499;DHT22;11926;48.120;11.562;2023-04-01T19:35:21;9.80;85.70
23499;DHT22;11926;48.120;11.562;2023-04-01T19:38:16;9.80;85.60
23499;DHT22;11926;48.120;11.562;2023-04-01T19:41:23;9.70;85.80
23499;DHT22;11926;48.120;11.562;2023-04-01T19:44:23;9.70;85.80
23499;DHT22;11926;48.120;11.562;2023-04-01T19:47:22;9.70;85.90
23499;DHT22;11926;48.120;11.562;2023-04-01T19:50:23;9.60;85.80
23499;DHT22;11926;48.120;11.562;2023-04-01T19:53:20;9.60;86.00
23499;DHT22;11926;48.120;11.562;2023-04-01T19:56:15;9.50;86.80
23499;DHT22;11926;48.120;11.562;2023-04-01T19:59:15;9.40;86.00
23499;DHT22;11926;48.120;11.562;2023-04-01T20:02:28;9.40;86.30
23499;DHT22;11926;48.120;11.562;2023-04-01T20:05:28;9.30;86.40
23499;DHT22;11926;48.120;11.562;2023-04-01T20:08:26;9.20;86.60
23499;DHT22;11926;48.120;11.562;2023-04-01T20:11:27;9.10;86.70
23499;DHT22;11926;48.120;11.562;2023-04-01T20:14:27;9.10;87.00
23499;DHT22;11926;48.120;11.562;2023-04-01T20:17:19;9.00;87.10
23499;DHT22;11926;48.120;11.562;2023-04-01T20:20:19;9.00;87.20
23499;DHT22;11926;48.120;11.562;2023-04-01T20:23:28;9.00;87.40
23499;DHT22;11926;48.120;11.562;2023-04-01T20:26:21;8.90;87.40
23499;DHT22;11926;48.120;11.562;2023-04-01T20:29:24;8.80;87.60
23499;DHT22;11926;48.120;11.562;2023-04-01T20:32:33;8.80;87.90
23499;DHT22;11926;48.120;11.562;2023-04-01T20:35:25;8.70;88.00
23499;DHT22;11926;48.120;11.562;2023-04-01T20:38:37;8.70;87.80
23499;DHT22;11926;48.120;11.562;2023-04-01T20:41:28;8.70;88.30